createdAt,value
2023-05-24T00:01:59.467Z,98084.50
2023-05-24T00:04:30.577Z,98086.06
2023-05-24T00:07:03.534Z,98075.78
2023-05-24T00:09:33.101Z,98077.25
2023-05-24T00:12:02.358Z,98077.50
2023-05-24T00:14:31.425Z,98079.97
2023-05-24T00:17:00.878Z,98075.78
2023-05-24T00:19:30.006Z,98070.00
2023-05-24T00:22:00.424Z,98070.00
2023-05-24T00:24:29.586Z,98067.34
2023-05-24T00:26:58.594Z,98081.34
2023-05-24T00:29:27.896Z,98075.00
2023-05-24T00:31:57.879Z,98087.13
2023-05-24T00:34:26.953Z,98083.28
2023-05-24T00:36:57.155Z,98085.41
2023-05-24T00:39:28.111Z,98076.91
2023-05-24T00:41:59.354Z,98083.84
2023-05-24T00:44:29.018Z,98085.41
2023-05-24T00:46:58.369Z,98086.31
2023-05-24T00:49:28.120Z,98087.91
2023-05-24T00:51:57.428Z,98090.41
2023-05-24T00:54:31.706Z,98085.53
2023-05-24T00:57:00.940Z,98085.53
2023-05-24T00:59:30.120Z,98079.19
2023-05-24T01:02:00.341Z,98078.41
2023-05-24T01:04:29.586Z,98079.31
2023-05-24T01:07:13.030Z,98083.50
2023-05-24T01:10:00.275Z,98079.59
2023-05-24T01:12:42.800Z,98086.44
2023-05-24T01:15:25.418Z,98081.22
2023-05-24T01:18:06.178Z,98077.72
2023-05-24T01:20:39.043Z,98080.09
2023-05-24T01:23:40.328Z,98082.72
2023-05-24T01:26:33.141Z,98080.47
2023-05-24T01:29:04.950Z,98081.38
2023-05-24T01:31:35.135Z,98083.19
2023-05-24T01:34:04.249Z,98096.09
2023-05-24T01:36:33.374Z,98088.63
2023-05-24T01:39:02.597Z,98094.19
2023-05-24T01:41:41.323Z,98094.41
2023-05-24T01:44:25.087Z,98099.28
2023-05-24T01:47:05.359Z,98096.69
2023-05-24T01:49:43.519Z,98099.97
2023-05-24T01:52:17.440Z,98102.19
2023-05-24T01:54:52.964Z,98099.28
2023-05-24T01:57:23.955Z,98095.53
2023-05-24T01:59:55.938Z,98092.72
2023-05-24T02:02:25.194Z,98102.66
2023-05-24T02:04:54.260Z,98100.94
2023-05-24T02:07:23.284Z,98112.41
2023-05-24T02:09:52.387Z,98104.47
2023-05-24T02:12:21.410Z,98116.69
2023-05-24T02:14:51.236Z,98116.94
2023-05-24T02:17:22.680Z,98116.28
2023-05-24T02:19:51.823Z,98104.72
2023-05-24T02:22:22.400Z,98109.03
2023-05-24T02:24:51.427Z,98114.00
2023-05-24T02:27:20.551Z,98109.25
2023-05-24T02:29:49.563Z,98112.63
2023-05-24T02:32:18.579Z,98115.25
2023-05-24T02:34:48.982Z,98126.00
2023-05-24T02:37:17.965Z,98118.97
2023-05-24T02:39:46.946Z,98124.06
2023-05-24T02:42:16.020Z,98128.28
2023-05-24T02:44:48.006Z,98128.50
2023-05-24T02:47:17.151Z,98126.22
2023-05-24T02:49:46.246Z,98126.22
2023-05-24T02:52:21.629Z,98134.50
2023-05-24T02:54:51.111Z,98126.56
2023-05-24T02:57:21.837Z,98127.94
2023-05-24T02:59:50.981Z,98123.84
2023-05-24T03:02:22.105Z,98120.22
2023-05-24T03:04:51.228Z,98128.03
2023-05-24T03:07:22.101Z,98120.81
2023-05-24T03:09:51.199Z,98119.09
2023-05-24T03:12:20.215Z,98123.97
2023-05-24T03:14:49.264Z,98124.31
2023-05-24T03:17:18.440Z,98118.97
2023-05-24T03:19:47.736Z,98125.88
2023-05-24T03:22:16.878Z,98131.22
2023-05-24T03:24:47.417Z,98124.75
2023-05-24T03:27:16.499Z,98131.91
2023-05-24T03:29:45.557Z,98132.59
2023-05-24T03:32:15.098Z,98135.41
2023-05-24T03:34:44.353Z,98131.69
2023-05-24T03:37:13.341Z,98137.34
2023-05-24T03:39:44.313Z,98136.44
2023-05-24T03:42:35.945Z,98140.41
2023-05-24T03:45:06.457Z,98142.53
2023-05-24T03:47:35.585Z,98150.59
2023-05-24T03:50:06.218Z,98159.78
2023-05-24T03:52:35.237Z,98152.19
2023-05-24T03:55:07.028Z,98151.94
2023-05-24T03:57:37.479Z,98156.13
2023-05-24T04:00:08.628Z,98147.97
2023-05-24T04:02:44.677Z,98146.41
2023-05-24T04:05:18.238Z,98153.66
2023-05-24T04:07:47.334Z,98153.44
2023-05-24T04:10:16.346Z,98158.19
2023-05-24T04:12:46.795Z,98159.53
2023-05-24T04:15:16.226Z,98170.84
2023-05-24T04:17:48.746Z,98163.84
2023-05-24T04:20:18.473Z,98166.56
2023-05-24T04:22:47.482Z,98169.97
2023-05-24T04:25:18.518Z,98171.53
2023-05-24T04:27:52.324Z,98172.22
2023-05-24T04:30:21.656Z,98184.59
2023-05-24T04:32:51.322Z,98181.50
2023-05-24T04:35:20.603Z,98180.94
2023-05-24T04:37:50.729Z,98181.28
2023-05-24T04:40:22.979Z,98181.16
2023-05-24T04:42:53.425Z,98191.47
2023-05-24T04:45:22.632Z,98199.94
2023-05-24T04:47:52.058Z,98196.53
2023-05-24T04:50:21.091Z,98193.34
2023-05-24T04:52:50.096Z,98205.38
2023-05-24T04:55:20.447Z,98214.25
2023-05-24T04:57:49.409Z,98211.06
2023-05-24T05:00:23.384Z,98221.59
2023-05-24T05:02:52.524Z,98215.25
2023-05-24T05:05:22.391Z,98223.41
2023-05-24T05:07:51.606Z,98217.97
2023-05-24T05:10:23.617Z,98223.06
2023-05-24T05:12:52.946Z,98217.63
2023-05-24T05:15:25.117Z,98219.03
2023-05-24T05:17:54.349Z,98216.94
2023-05-24T05:20:24.404Z,98215.25
2023-05-24T05:22:53.555Z,98212.75
2023-05-24T05:25:22.877Z,98210.16
2023-05-24T05:27:51.944Z,98209.59
2023-05-24T05:30:21.158Z,98202.78
2023-05-24T05:32:51.934Z,98213.53
2023-05-24T05:35:21.107Z,98204.78
2023-05-24T05:37:50.115Z,98206.16
2023-05-24T05:40:19.312Z,98209.78
2023-05-24T05:42:49.148Z,98212.47
2023-05-24T05:45:18.363Z,98218.91
2023-05-24T05:47:47.599Z,98216.47
2023-05-24T05:50:18.277Z,98216.88
2023-05-24T05:52:49.699Z,98218.84
2023-05-24T05:55:18.960Z,98224.81
2023-05-24T05:57:50.128Z,98235.16
2023-05-24T06:00:21.022Z,98230.50
2023-05-24T06:02:50.216Z,98227.03
2023-05-24T06:05:21.517Z,98231.41
2023-05-24T06:07:50.518Z,98235.06
2023-05-24T06:10:19.708Z,98238.63
2023-05-24T06:12:51.599Z,98236.03
2023-05-24T06:15:22.775Z,98240.69
2023-05-24T06:17:52.868Z,98243.00
2023-05-24T06:20:23.508Z,98240.78
2023-05-24T06:22:52.618Z,98247.91
2023-05-24T06:25:22.843Z,98257.28
2023-05-24T06:27:52.808Z,98256.91
2023-05-24T06:30:22.293Z,98261.06
2023-05-24T06:32:51.415Z,98259.44
2023-05-24T06:35:20.443Z,98265.88
2023-05-24T06:37:50.826Z,98268.56
2023-05-24T06:40:19.948Z,98265.97
2023-05-24T06:42:51.491Z,98266.28
2023-05-24T06:45:21.029Z,98274.81
2023-05-24T06:47:50.282Z,98272.25
2023-05-24T06:50:19.674Z,98278.41
2023-05-24T06:52:50.158Z,98278.50
2023-05-24T06:55:19.120Z,98281.28
2023-05-24T06:57:48.245Z,98281.84
2023-05-24T07:00:22.379Z,98282.56
2023-05-24T07:02:51.597Z,98279.94
2023-05-24T07:05:21.435Z,98286.09
2023-05-24T07:07:51.844Z,98287.56
2023-05-24T07:10:21.073Z,98292.13
2023-05-24T07:12:50.067Z,98291.97
2023-05-24T07:15:19.283Z,98298.09
2023-05-24T07:17:48.290Z,98298.94
2023-05-24T07:20:17.718Z,98290.53
2023-05-24T07:22:46.842Z,98285.50
2023-05-24T07:25:17.531Z,98290.31
2023-05-24T07:27:48.233Z,98301.03
2023-05-24T07:30:30.950Z,98302.41
2023-05-24T07:33:01.940Z,98305.34
2023-05-24T07:35:31.237Z,98303.19
2023-05-24T07:38:00.314Z,98298.59
2023-05-24T07:40:30.709Z,98298.00
2023-05-24T07:42:59.731Z,98295.88
2023-05-24T07:45:28.798Z,98303.00
2023-05-24T07:47:57.884Z,98305.56
2023-05-24T07:50:27.201Z,98298.31
2023-05-24T07:52:58.016Z,98300.91
2023-05-24T07:55:28.100Z,98300.66
2023-05-24T07:57:58.578Z,98309.13
2023-05-24T08:00:27.868Z,98312.38
2023-05-24T08:02:57.535Z,98318.16
2023-05-24T08:05:26.899Z,98311.50
2023-05-24T08:07:56.037Z,98306.00
2023-05-24T08:10:25.249Z,98304.16
2023-05-24T08:12:56.107Z,98301.66
2023-05-24T08:15:26.629Z,98306.59
2023-05-24T08:17:56.809Z,98302.47
2023-05-24T08:20:25.936Z,98312.16
2023-05-24T08:22:54.933Z,98315.25
2023-05-24T08:25:24.169Z,98312.00
2023-05-24T08:27:56.779Z,98315.03
2023-05-24T08:30:27.343Z,98318.25
2023-05-24T08:32:58.169Z,98318.56
2023-05-24T08:35:27.260Z,98316.69
2023-05-24T08:37:56.680Z,98321.13
2023-05-24T08:40:26.434Z,98320.31
2023-05-24T08:43:00.524Z,98323.94
2023-05-24T08:45:33.917Z,98319.47
2023-05-24T08:48:03.694Z,98310.75
2023-05-24T08:50:34.699Z,98314.66
2023-05-24T08:53:03.908Z,98325.41
2023-05-24T08:55:33.362Z,98325.88
2023-05-24T08:58:02.896Z,98330.78
2023-05-24T09:00:33.271Z,98330.94
2023-05-24T09:03:03.023Z,98335.25
2023-05-24T09:05:33.668Z,98337.16
2023-05-24T09:08:03.429Z,98339.44
2023-05-24T09:10:44.860Z,98339.16
2023-05-24T09:13:24.157Z,98338.22
2023-05-24T09:15:54.817Z,98343.31
2023-05-24T09:18:23.868Z,98343.50
2023-05-24T09:20:53.406Z,98332.88
2023-05-24T09:23:23.815Z,98349.00
2023-05-24T09:25:52.978Z,98336.66
2023-05-24T09:28:22.294Z,98341.09
2023-05-24T09:31:05.412Z,98349.00
2023-05-24T09:33:36.935Z,98345.56
2023-05-24T09:36:07.717Z,98345.88
2023-05-24T09:38:37.286Z,98345.59
2023-05-24T09:41:08.449Z,98342.41
2023-05-24T09:43:49.539Z,98357.31
2023-05-24T09:46:21.726Z,98350.47
2023-05-24T09:49:08.608Z,98352.53
2023-05-24T09:51:39.401Z,98356.13
2023-05-24T09:54:09.827Z,98362.97
2023-05-24T09:56:41.409Z,98362.31
2023-05-24T09:59:10.779Z,98362.59
2023-05-24T10:01:41.162Z,98367.00
2023-05-24T10:04:10.638Z,98363.16
2023-05-24T10:06:43.055Z,98355.22
2023-05-24T10:09:14.137Z,98359.78
2023-05-24T10:11:45.568Z,98370.00
2023-05-24T10:14:14.811Z,98363.00
2023-05-24T10:16:45.685Z,98365.41
2023-05-24T10:19:14.684Z,98369.41
2023-05-24T10:21:44.509Z,98372.72
2023-05-24T10:24:20.139Z,98373.34
2023-05-24T10:26:50.149Z,98379.41
2023-05-24T10:29:34.761Z,98374.06
2023-05-24T10:32:06.820Z,98374.38
2023-05-24T10:34:36.868Z,98371.28
2023-05-24T10:37:08.604Z,98370.97
2023-05-24T10:39:37.664Z,98381.41
2023-05-24T10:42:09.810Z,98378.69
2023-05-24T10:44:39.210Z,98380.75
2023-05-24T10:47:12.180Z,98386.13
2023-05-24T10:49:51.418Z,98393.94
2023-05-24T10:52:21.434Z,98389.31
2023-05-24T10:55:05.552Z,98384.41
2023-05-24T10:57:35.079Z,98382.25
2023-05-24T11:03:04.171Z,98392.81
2023-05-24T11:05:37.764Z,98400.16
2023-05-24T11:08:09.695Z,98387.72
2023-05-24T11:10:39.122Z,98398.16
2023-05-24T11:13:09.733Z,98393.41
2023-05-24T11:15:39.722Z,98388.69
2023-05-24T11:18:23.167Z,98391.31
2023-05-24T11:20:53.149Z,98385.75
2023-05-24T11:23:22.344Z,98390.72
2023-05-24T11:25:51.935Z,98388.94
2023-05-24T11:28:22.069Z,98379.31
2023-05-24T11:30:51.726Z,98389.75
2023-05-24T11:33:23.854Z,98384.00
2023-05-24T11:35:55.602Z,98387.00
2023-05-24T11:38:25.625Z,98382.75
2023-05-24T11:40:54.702Z,98382.44
2023-05-24T11:43:23.753Z,98380.94
2023-05-24T11:45:53.782Z,98385.81
2023-05-24T11:48:24.827Z,98382.97
2023-05-24T11:50:54.049Z,98380.88
2023-05-24T11:53:23.231Z,98384.09
2023-05-24T11:55:54.529Z,98378.00
2023-05-24T11:58:26.409Z,98371.34
2023-05-24T12:00:55.561Z,98375.06
2023-05-24T12:03:26.451Z,98371.34
2023-05-24T12:05:59.751Z,98380.44
2023-05-24T12:08:29.568Z,98375.59
2023-05-24T12:10:59.574Z,98371.72
2023-05-24T12:13:29.237Z,98381.38
2023-05-24T12:15:58.951Z,98376.22
2023-05-24T12:18:31.467Z,98374.00
2023-05-24T12:21:00.649Z,98374.47
2023-05-24T12:23:32.073Z,98370.19
2023-05-24T12:26:01.249Z,98374.66
2023-05-24T12:28:36.960Z,98375.03
2023-05-24T12:31:07.188Z,98367.13
2023-05-24T12:33:39.619Z,98370.59
2023-05-24T12:36:11.484Z,98367.41
2023-05-24T12:38:40.618Z,98365.81
2023-05-24T12:41:13.603Z,98363.00
2023-05-24T12:43:44.872Z,98369.31
2023-05-24T12:46:14.346Z,98364.88
2023-05-24T12:48:45.503Z,98363.31
2023-05-24T12:51:14.478Z,98356.03
2023-05-24T12:53:43.487Z,98369.03
2023-05-24T12:56:12.500Z,98363.94
2023-05-24T12:58:42.209Z,98361.44
2023-05-24T13:01:12.458Z,98349.06
2023-05-24T13:03:41.660Z,98357.31
2023-05-24T13:06:12.048Z,98360.13
2023-05-24T13:08:41.152Z,98351.81
2023-05-24T13:11:14.166Z,98358.63
2023-05-24T13:13:46.667Z,98361.88
2023-05-24T13:16:16.090Z,98355.03
2023-05-24T13:18:54.913Z,98356.16
2023-05-24T13:21:25.853Z,98358.50
2023-05-24T13:23:55.061Z,98347.44
2023-05-24T13:26:24.574Z,98351.53
2023-05-24T13:31:27.648Z,98350.31
2023-05-24T13:33:59.295Z,98346.97
2023-05-24T13:36:29.807Z,98348.22
2023-05-24T13:41:33.030Z,98351.66
2023-05-24T13:44:10.520Z,98341.06
2023-05-24T13:46:49.275Z,98341.75
2023-05-24T13:49:18.390Z,98342.66
2023-05-24T13:51:51.954Z,98328.22
2023-05-24T13:54:26.447Z,98332.22
2023-05-24T13:56:57.606Z,98334.56
2023-05-24T13:59:28.722Z,98339.19
2023-05-24T14:01:57.874Z,98336.84
2023-05-24T14:05:05.193Z,98329.13
2023-05-24T14:08:02.657Z,98329.91
2023-05-24T14:10:52.714Z,98331.97
2023-05-24T14:14:16.630Z,98330.66
2023-05-24T14:16:46.575Z,98318.69
2023-05-24T14:19:17.768Z,98326.25
2023-05-24T14:21:47.144Z,98328.09
2023-05-24T14:24:21.137Z,98317.31
2023-05-24T14:26:59.978Z,98326.00
2023-05-24T14:30:09.488Z,98326.00
2023-05-24T14:32:55.600Z,98332.16
2023-05-24T14:35:31.630Z,98328.22
2023-05-24T14:38:00.913Z,98327.44
2023-05-24T14:40:37.323Z,98333.09
2023-05-24T14:43:10.689Z,98325.44
2023-05-24T14:45:42.226Z,98331.41
2023-05-24T14:48:13.068Z,98331.19
2023-05-24T14:50:47.574Z,98326.41
2023-05-24T14:53:17.203Z,98319.81
2023-05-24T14:55:48.115Z,98328.78
2023-05-24T14:58:19.258Z,98324.25
2023-05-24T15:01:03.621Z,98320.97
2023-05-24T15:03:36.590Z,98320.84
2023-05-24T15:06:11.294Z,98320.84
2023-05-24T15:08:50.375Z,98314.16
2023-05-24T15:11:30.637Z,98327.50
2023-05-24T15:14:07.840Z,98320.56
2023-05-24T15:16:51.313Z,98329.91
2023-05-24T15:19:26.392Z,98322.75
2023-05-24T15:21:55.534Z,98329.38
2023-05-24T15:24:24.586Z,98328.72
2023-05-24T15:26:57.531Z,98327.25
2023-05-24T15:29:26.807Z,98331.72
2023-05-24T15:31:58.987Z,98335.63
2023-05-24T15:34:28.842Z,98333.25
2023-05-24T15:36:57.867Z,98327.41
2023-05-24T15:39:29.438Z,98328.47
2023-05-24T15:42:03.910Z,98318.75
2023-05-24T15:44:33.048Z,98327.25
2023-05-24T15:47:02.148Z,98314.56
2023-05-24T15:49:31.532Z,98319.03
2023-05-24T15:52:04.361Z,98320.34
2023-05-24T15:54:34.180Z,98321.41
2023-05-24T15:57:04.818Z,98316.00
2023-05-24T15:59:35.421Z,98328.69
2023-05-24T16:02:04.858Z,98316.13
2023-05-24T16:04:33.874Z,98315.66
2023-05-24T16:07:03.009Z,98319.56
2023-05-24T16:09:32.541Z,98317.63
2023-05-24T16:12:01.881Z,98324.91
2023-05-24T16:14:32.314Z,98324.88
2023-05-24T16:17:04.705Z,98321.44
2023-05-24T16:19:34.187Z,98319.13
2023-05-24T16:22:03.507Z,98319.72
2023-05-24T16:24:32.483Z,98319.72
2023-05-24T16:27:02.612Z,98322.56
2023-05-24T16:29:33.972Z,98317.53
2023-05-24T16:32:03.017Z,98332.34
2023-05-24T16:34:38.749Z,98331.69
2023-05-24T16:37:16.951Z,98335.25
2023-05-24T16:39:48.438Z,98332.63
2023-05-24T16:42:18.033Z,98331.97
2023-05-24T16:44:48.612Z,98334.59
2023-05-24T16:47:17.730Z,98335.41
2023-05-24T16:49:46.785Z,98343.47
2023-05-24T16:52:16.382Z,98344.75
2023-05-24T16:54:45.438Z,98344.13
2023-05-24T16:57:14.913Z,98331.84
2023-05-24T16:59:45.213Z,98339.69
2023-05-24T17:02:16.172Z,98336.41
2023-05-24T17:04:45.438Z,98342.53
2023-05-24T17:07:14.410Z,98336.53
2023-05-24T17:09:43.802Z,98337.31
2023-05-24T17:12:12.823Z,98350.28
2023-05-24T17:14:41.836Z,98345.19
2023-05-24T17:17:11.941Z,98340.09
2023-05-24T17:19:42.540Z,98345.78
2023-05-24T17:22:12.620Z,98360.03
2023-05-24T17:24:41.629Z,98361.75
2023-05-24T17:27:10.622Z,98349.59
2023-05-24T17:29:44.563Z,98357.94
2023-05-24T17:32:13.709Z,98357.38
2023-05-24T17:34:48.405Z,98349.72
2023-05-24T17:37:18.021Z,98362.31
2023-05-24T17:39:47.416Z,98369.34
2023-05-24T17:42:20.217Z,98359.16
2023-05-24T17:44:51.478Z,98369.03
2023-05-24T17:47:27.648Z,98357.94
2023-05-24T17:50:02.005Z,98365.19
2023-05-24T17:52:55.608Z,98371.56
2023-05-24T17:55:41.482Z,98360.66
2023-05-24T17:58:25.056Z,98369.06
2023-05-24T18:01:03.267Z,98365.00
2023-05-24T18:03:41.041Z,98376.34
2023-05-24T18:06:15.842Z,98366.81
2023-05-24T18:08:45.301Z,98370.09
2023-05-24T18:11:14.678Z,98374.97
2023-05-24T18:13:45.020Z,98378.59
2023-05-24T18:16:16.743Z,98371.09
2023-05-24T18:18:46.430Z,98379.28
2023-05-24T18:21:18.580Z,98380.06
2023-05-24T18:23:53.415Z,98379.69
2023-05-24T18:26:22.842Z,98383.66
2023-05-24T18:28:55.765Z,98387.22
2023-05-24T18:31:25.448Z,98385.72
2023-05-24T18:33:54.658Z,98391.84
2023-05-24T18:36:25.298Z,98396.22
2023-05-24T18:38:54.466Z,98396.91
2023-05-24T18:41:23.736Z,98413.47
2023-05-24T18:43:53.535Z,98413.72
2023-05-24T18:46:22.805Z,98409.06
2023-05-24T18:48:52.816Z,98415.28
2023-05-24T18:51:24.833Z,98428.66
2023-05-24T18:53:54.252Z,98424.56
2023-05-24T18:56:23.728Z,98434.13
2023-05-24T18:58:58.863Z,98435.38
2023-05-24T19:01:28.375Z,98435.91
2023-05-24T19:04:00.161Z,98439.88
2023-05-24T19:06:32.888Z,98440.00
2023-05-24T19:09:02.572Z,98451.22
2023-05-24T19:11:35.187Z,98451.81
2023-05-24T19:14:04.587Z,98445.47
2023-05-24T19:16:35.304Z,98447.25
2023-05-24T19:19:13.360Z,98455.22
2023-05-24T19:21:46.738Z,98456.91
2023-05-24T19:24:18.815Z,98470.28
2023-05-24T19:26:47.931Z,98468.56
2023-05-24T19:29:17.749Z,98468.56
2023-05-24T19:31:49.058Z,98478.59
2023-05-24T19:34:19.565Z,98480.81
2023-05-24T19:36:52.512Z,98484.66
2023-05-24T19:39:22.870Z,98481.06
2023-05-24T19:41:53.483Z,98485.25
2023-05-24T19:44:31.347Z,98485.56
2023-05-24T19:47:03.851Z,98490.75
2023-05-24T19:49:35.061Z,98488.94
2023-05-24T19:52:05.789Z,98484.69
2023-05-24T19:54:35.388Z,98488.78
2023-05-24T19:57:08.612Z,98491.84
2023-05-24T19:59:37.821Z,98491.50
2023-05-24T20:02:12.609Z,98493.97
2023-05-24T20:04:43.889Z,98490.44
2023-05-24T20:07:15.911Z,98497.88
2023-05-24T20:09:45.380Z,98504.38
2023-05-24T20:12:14.768Z,98500.34
2023-05-24T20:14:53.158Z,98505.66
2023-05-24T20:17:29.248Z,98499.56
2023-05-24T20:20:09.820Z,98503.56
2023-05-24T20:22:41.089Z,98502.28
2023-05-24T20:25:10.891Z,98489.03
2023-05-24T20:27:43.599Z,98496.72
2023-05-24T20:30:14.015Z,98499.78
2023-05-24T20:32:43.234Z,98503.94
2023-05-24T20:35:13.094Z,98505.53
2023-05-24T20:37:44.114Z,98504.75
2023-05-24T20:40:22.360Z,98505.53
2023-05-24T20:42:51.498Z,98501.47
2023-05-24T20:45:22.599Z,98505.53
2023-05-24T20:47:51.927Z,98503.94
2023-05-24T20:50:21.130Z,98506.41
2023-05-24T20:52:52.969Z,98502.00
2023-05-24T20:55:22.763Z,98503.75
2023-05-24T20:57:53.653Z,98499.72
2023-05-24T21:00:22.662Z,98505.19
2023-05-24T21:02:51.865Z,98504.88
2023-05-24T21:05:20.957Z,98508.03
2023-05-24T21:07:50.963Z,98513.16
2023-05-24T21:10:23.014Z,98523.25
2023-05-24T21:12:52.629Z,98513.69
2023-05-24T21:15:24.775Z,98513.50
2023-05-24T21:17:53.880Z,98518.09
2023-05-24T21:20:23.575Z,98514.03
2023-05-24T21:22:52.635Z,98514.03
2023-05-24T21:25:26.247Z,98513.38
2023-05-24T21:27:56.091Z,98511.72
2023-05-24T21:30:25.387Z,98517.72
2023-05-24T21:32:54.753Z,98514.63
2023-05-24T21:35:23.833Z,98515.78
2023-05-24T21:37:54.065Z,98519.75
2023-05-24T21:40:32.293Z,98527.81
2023-05-24T21:43:09.643Z,98527.81
2023-05-24T21:45:38.835Z,98528.16
2023-05-24T21:48:08.136Z,98530.66
2023-05-24T21:50:37.236Z,98531.53
2023-05-24T21:53:06.183Z,98541.06
2023-05-24T21:55:35.298Z,98531.50
2023-05-24T21:58:04.318Z,98531.72
2023-05-24T22:00:35.915Z,98545.53
2023-05-24T22:03:05.115Z,98530.25
2023-05-24T22:05:36.169Z,98525.47
2023-05-24T22:08:05.160Z,98541.72
2023-05-24T22:10:34.624Z,98534.13
2023-05-24T22:13:03.624Z,98543.31
2023-05-24T22:15:36.796Z,98541.72
2023-05-24T22:18:05.957Z,98536.78
2023-05-24T22:20:36.810Z,98535.63
2023-05-24T22:23:05.985Z,98532.03
2023-05-24T22:25:34.950Z,98536.53
2023-05-24T22:28:04.040Z,98548.47
2023-05-24T22:30:35.032Z,98551.50
2023-05-24T22:33:05.489Z,98550.63
2023-05-24T22:35:34.572Z,98544.19
2023-05-24T22:38:03.585Z,98543.44
2023-05-24T22:40:32.680Z,98542.44
2023-05-24T22:43:01.894Z,98529.66
2023-05-24T22:45:31.180Z,98531.34
2023-05-24T22:48:04.102Z,98531.59
2023-05-24T22:50:34.596Z,98530.06
2023-05-24T22:53:03.580Z,98526.31
2023-05-24T22:55:32.706Z,98529.50
2023-05-24T22:58:01.888Z,98538.13
2023-05-24T23:00:31.202Z,98530.31
2023-05-24T23:03:00.989Z,98530.47
2023-05-24T23:05:30.521Z,98529.78
2023-05-24T23:08:00.991Z,98534.41
2023-05-24T23:10:30.067Z,98528.91
2023-05-24T23:13:01.224Z,98533.81
2023-05-24T23:15:32.013Z,98528.66
2023-05-24T23:18:02.572Z,98531.03
2023-05-24T23:20:31.660Z,98535.72
2023-05-24T23:23:03.428Z,98524.22
2023-05-24T23:25:32.476Z,98527.19
2023-05-24T23:28:02.029Z,98532.13
2023-05-24T23:30:31.194Z,98524.91
2023-05-24T23:33:00.696Z,98536.56
2023-05-24T23:35:29.789Z,98533.63
2023-05-24T23:37:58.885Z,98546.84
2023-05-24T23:40:30.199Z,98538.91
2023-05-24T23:42:59.190Z,98537.31
2023-05-24T23:45:28.234Z,98536.50
2023-05-24T23:47:57.404Z,98530.81
2023-05-24T23:50:27.507Z,98535.56
2023-05-24T23:52:56.692Z,98532.31
2023-05-24T23:55:26.439Z,98536.31
2023-05-24T23:57:57.068Z,98524.66
